Time;durP1;ratioP1;P1;durP2;ratioP2;P2;SDS_P1;SDS_P2;PMS_P1;PMS_P2;Temp;Humidity;BMP_temperature;BMP_pressure;BME280_temperature;BME280_humidity;BME280_pressure;Samples;Min_cycle;Max_cycle;Signal;HPM_P1;HPM_P2
2021/04/15 00:02:01;;;;;;;;;6.75;6.75;;;;;;;;3560996;39;111856;-70
2021/04/15 00:04:28;;;;;;;;;2.00;2.00;;;;;;;;3559560;39;114312;-71
2021/04/15 00:06:54;;;;;;;;;8.25;7.75;;;;;;;;3558321;39;111945;-69
2021/04/15 00:09:22;;;;;;;;;6.00;6.00;;;;;;;;3559774;39;113410;-69
2021/04/15 00:11:48;;;;;;;;;6.00;6.00;;;;;;;;3558303;39;113915;-70
2021/04/15 00:14:16;;;;;;;;;6.50;5.00;;;;;;;;3557121;39;113516;-69
2021/04/15 00:16:42;;;;;;;;;6.00;6.00;;;;;;;;3559545;39;113196;-69
2021/04/15 00:19:08;;;;;;;;;5.50;3.50;;;;;;;;3557209;39;112875;-69
2021/04/15 00:21:35;;;;;;;;;7.00;6.50;;;;;;;;3559463;39;111703;-71
2021/04/15 00:24:02;;;;;;;;;3.25;3.25;;;;;;;;3560417;39;113519;-72
2021/04/15 00:26:29;;;;;;;;;5.50;5.50;;;;;;;;3560379;39;111770;-71
2021/04/15 00:28:55;;;;;;;;;4.50;4.50;;;;;;;;3559806;39;113479;-70
2021/04/15 00:31:22;;;;;;;;;6.00;3.50;;;;;;;;3558189;39;114485;-69
2021/04/15 00:33:48;;;;;;;;;7.25;6.00;;;;;;;;3557261;39;112098;-71
2021/04/15 00:36:14;;;;;;;;;5.00;5.00;;;;;;;;3559046;39;113491;-70
2021/04/15 00:38:41;;;;;;;;;4.50;2.75;;;;;;;;3558363;39;113991;-70
2021/04/15 00:41:08;;;;;;;;;6.50;6.50;;;;;;;;3559204;39;112589;-69
2021/04/15 00:43:36;;;;;;;;;4.00;4.00;;;;;;;;3558451;39;113608;-68
2021/04/15 00:46:15;;;;;;;;;6.00;6.00;;;;;;;;3561930;39;113861;-70
2021/04/15 00:48:43;;;;;;;;;7.00;7.00;;;;;;;;3558773;39;113191;-70
2021/04/15 00:51:12;;;;;;;;;4.50;4.50;;;;;;;;3558845;39;114134;-70
2021/04/15 00:53:41;;;;;;;;;2.00;2.00;;;;;;;;3558337;39;112617;-70
2021/04/15 00:56:09;;;;;;;;;5.50;5.50;;;;;;;;3559232;39;113346;-70
2021/04/15 00:58:36;;;;;;;;;7.00;6.00;;;;;;;;3557832;39;114185;-71
2021/04/15 01:01:03;;;;;;;;;3.00;3.00;;;;;;;;3557946;39;111869;-69
2021/04/15 01:03:29;;;;;;;;;6.00;4.50;;;;;;;;3559658;39;113256;-72
2021/04/15 01:05:55;;;;;;;;;3.75;3.75;;;;;;;;3557514;39;114246;-71
2021/04/15 01:08:21;;;;;;;;;4.50;3.75;;;;;;;;3562171;39;111853;-72
2021/04/15 01:10:52;;;;;;;;;5.00;5.00;;;;;;;;3557873;39;113671;-73
2021/04/15 01:13:31;;;;;;;;;4.50;4.50;;;;;;;;3559103;39;112101;-73
2021/04/15 01:16:00;;;;;;;;;5.00;4.00;;;;;;;;3557815;39;113109;-73
2021/04/15 01:18:30;;;;;;;;;6.00;6.00;;;;;;;;3559227;39;114216;-73
2021/04/15 01:21:14;;;;;;;;;3.00;3.00;;;;;;;;3557787;39;112087;-74
2021/04/15 01:23:44;;;;;;;;;6.25;4.50;;;;;;;;3558952;39;113751;-74
2021/04/15 01:26:30;;;;;;;;;4.00;4.00;;;;;;;;3559555;39;114020;-74
2021/04/15 01:29:09;;;;;;;;;3.00;3.00;;;;;;;;3560339;39;112155;-72
2021/04/15 01:31:40;;;;;;;;;6.00;3.50;;;;;;;;3560557;39;113555;-72
2021/04/15 01:34:10;;;;;;;;;3.25;3.25;;;;;;;;3557697;39;112284;-72
2021/04/15 01:36:42;;;;;;;;;4.50;4.00;;;;;;;;3560348;39;113693;-73
2021/04/15 01:39:14;;;;;;;;;8.00;6.00;;;;;;;;3558816;39;113874;-73
2021/04/15 01:41:42;;;;;;;;;5.50;5.50;;;;;;;;3560056;39;112180;-72
2021/04/15 01:44:13;;;;;;;;;6.25;5.00;;;;;;;;3559294;39;113221;-72
2021/04/15 01:46:40;;;;;;;;;5.50;5.50;;;;;;;;3559722;39;114327;-72
2021/04/15 01:49:07;;;;;;;;;3.75;3.75;;;;;;;;3559094;39;112544;-72
2021/04/15 01:51:36;;;;;;;;;6.00;4.50;;;;;;;;3562663;39;113933;-72
2021/04/15 01:54:05;;;;;;;;;5.75;5.00;;;;;;;;3558875;39;112467;-73
2021/04/15 01:56:34;;;;;;;;;3.50;3.50;;;;;;;;3560673;39;113325;-72
2021/04/15 01:59:02;;;;;;;;;3.00;3.00;;;;;;;;3558477;39;114160;-72
2021/04/15 02:01:33;;;;;;;;;6.00;6.00;;;;;;;;3561037;39;112183;-73
2021/04/15 02:04:02;;;;;;;;;6.00;5.50;;;;;;;;3558840;39;113401;-73
2021/04/15 02:06:30;;;;;;;;;4.00;4.00;;;;;;;;3560516;39;114641;-73
2021/04/15 02:08:58;;;;;;;;;5.00;5.00;;;;;;;;3560546;39;111919;-73
2021/04/15 02:11:29;;;;;;;;;6.00;6.00;;;;;;;;3559015;39;113432;-73
2021/04/15 02:13:57;;;;;;;;;2.00;0.00;;;;;;;;3562546;39;114679;-73
2021/04/15 02:16:25;;;;;;;;;6.00;6.00;;;;;;;;3559133;39;113301;-73
2021/04/15 02:18:54;;;;;;;;;8.25;6.50;;;;;;;;3559506;39;113799;-72
2021/04/15 02:21:24;;;;;;;;;6.50;6.50;;;;;;;;3559387;39;112154;-72
2021/04/15 02:23:52;;;;;;;;;6.75;6.75;;;;;;;;3560084;39;113242;-72
2021/04/15 02:26:21;;;;;;;;;8.75;6.00;;;;;;;;3559000;39;114179;-72
2021/04/15 02:28:49;;;;;;;;;7.00;7.00;;;;;;;;3559875;39;111706;-73
2021/04/15 02:31:18;;;;;;;;;6.00;5.50;;;;;;;;3559493;39;113522;-73
2021/04/15 02:33:46;;;;;;;;;7.00;7.00;;;;;;;;3559208;39;113918;-73
2021/04/15 02:36:15;;;;;;;;;9.50;8.00;;;;;;;;3562272;39;112025;-73
2021/04/15 02:38:44;;;;;;;;;10.50;8.00;;;;;;;;3558884;39;114175;-73
2021/04/15 02:41:11;;;;;;;;;12.00;7.00;;;;;;;;3559853;39;112036;-74
2021/04/15 02:43:40;;;;;;;;;8.75;7.75;;;;;;;;3559277;39;113571;-73
2021/04/15 02:46:14;;;;;;;;;6.75;6.50;;;;;;;;3559532;39;113918;-73
2021/04/15 02:48:41;;;;;;;;;7.00;6.00;;;;;;;;3559424;39;112492;-73
2021/04/15 02:51:09;;;;;;;;;8.25;7.25;;;;;;;;3560321;39;113111;-73
2021/04/15 02:53:39;;;;;;;;;7.00;7.00;;;;;;;;3558881;39;114061;-74
2021/04/15 02:56:08;;;;;;;;;7.75;7.00;;;;;;;;3560288;39;113973;-73
2021/04/15 02:58:36;;;;;;;;;8.25;7.75;;;;;;;;3561169;39;113553;-73
2021/04/15 03:01:03;;;;;;;;;11.00;7.50;;;;;;;;3560766;39;111954;-72
2021/04/15 03:03:33;;;;;;;;;13.25;9.00;;;;;;;;3561200;39;113251;-72
2021/04/15 03:06:02;;;;;;;;;9.50;8.00;;;;;;;;3558573;39;114240;-73
2021/04/15 03:08:28;;;;;;;;;8.25;8.00;;;;;;;;3559321;39;112446;-73
2021/04/15 03:10:59;;;;;;;;;11.00;8.00;;;;;;;;3560591;39;113480;-73
2021/04/15 03:13:29;;;;;;;;;13.00;13.00;;;;;;;;3558848;39;114324;-73
2021/04/15 03:15:58;;;;;;;;;11.00;8.00;;;;;;;;3560214;39;112803;-72
2021/04/15 03:18:40;;;;;;;;;7.25;7.25;;;;;;;;3559209;39;113335;-74
2021/04/15 03:21:08;;;;;;;;;12.00;11.00;;;;;;;;3562883;39;114173;-74
2021/04/15 03:23:38;;;;;;;;;8.00;7.00;;;;;;;;3560968;39;113294;-74
2021/04/15 03:26:08;;;;;;;;;9.25;7.00;;;;;;;;3558976;39;114011;-74
2021/04/15 03:28:40;;;;;;;;;6.50;6.00;;;;;;;;3560757;39;112407;-74
2021/04/15 03:31:09;;;;;;;;;6.25;6.25;;;;;;;;3559357;39;113434;-75
2021/04/15 03:33:37;;;;;;;;;6.00;6.00;;;;;;;;3560372;39;114110;-74
2021/04/15 03:36:07;;;;;;;;;4.25;4.25;;;;;;;;3558975;39;111745;-74
2021/04/15 03:38:36;;;;;;;;;3.33;3.33;;;;;;;;3561021;39;113476;-72
2021/04/15 03:41:04;;;;;;;;;6.67;6.67;;;;;;;;3558838;39;114219;-74
2021/04/15 03:43:34;;;;;;;;;7.00;5.33;;;;;;;;3563687;39;112001;-74
2021/04/15 03:46:09;;;;;;;;;2.00;2.00;;;;;;;;3558364;39;114689;-74
2021/04/15 03:48:37;;;;;;;;;9.33;8.00;;;;;;;;3560781;39;112273;-75
2021/04/15 03:51:06;;;;;;;;;10.00;7.33;;;;;;;;3558882;39;113617;-74
2021/04/15 03:53:34;;;;;;;;;12.33;10.00;;;;;;;;3560265;39;114096;-74
2021/04/15 03:56:03;;;;;;;;;6.00;5.00;;;;;;;;3558929;39;112141;-73
2021/04/15 03:58:31;;;;;;;;;6.67;5.33;;;;;;;;3560547;39;113642;-74
2021/04/15 04:01:02;;;;;;;;;6.00;6.00;;;;;;;;3558270;39;114178;-73
2021/04/15 04:03:29;;;;;;;;;3.00;3.00;;;;;;;;3561696;39;111961;-74
2021/04/15 04:05:56;;;;;;;;;3.00;1.33;;;;;;;;3560216;39;114095;-73
2021/04/15 04:08:32;;;;;;;;;5.67;5.67;;;;;;;;3559212;39;111920;-73
2021/04/15 04:10:59;;;;;;;;;6.00;6.00;;;;;;;;3560858;39;113104;-73
2021/04/15 04:13:27;;;;;;;;;5.00;5.00;;;;;;;;3560104;39;114377;-74
2021/04/15 04:15:56;;;;;;;;;5.00;5.00;;;;;;;;3558691;39;111868;-74
2021/04/15 04:18:27;;;;;;;;;3.67;3.00;;;;;;;;3560147;39;113230;-74
2021/04/15 04:20:55;;;;;;;;;7.00;5.00;;;;;;;;3559576;39;113827;-73
2021/04/15 04:23:32;;;;;;;;;5.00;5.00;;;;;;;;3558594;39;112139;-72
2021/04/15 04:26:00;;;;;;;;;6.00;5.00;;;;;;;;3562507;39;113213;-74
2021/04/15 04:28:29;;;;;;;;;7.67;6.33;;;;;;;;3560045;39;112213;-73
2021/04/15 04:31:00;;;;;;;;;7.00;4.33;;;;;;;;3558329;39;113375;-74
2021/04/15 04:33:36;;;;;;;;;6.00;6.00;;;;;;;;3559423;39;114059;-73
2021/04/15 04:36:02;;;;;;;;;6.00;6.00;;;;;;;;3558061;39;112541;-73
2021/04/15 04:38:28;;;;;;;;;5.00;5.00;;;;;;;;3560221;39;113475;-73
2021/04/15 04:40:57;;;;;;;;;6.00;6.00;;;;;;;;3557713;39;114015;-73
2021/04/15 04:43:26;;;;;;;;;6.00;5.00;;;;;;;;3559814;39;112461;-72
2021/04/15 04:45:56;;;;;;;;;12.00;7.00;;;;;;;;3558282;39;113688;-72
2021/04/15 04:48:24;;;;;;;;;5.67;3.00;;;;;;;;3560598;39;114061;-72
2021/04/15 04:50:53;;;;;;;;;5.00;5.00;;;;;;;;3559232;39;113445;-72
2021/04/15 04:53:24;;;;;;;;;6.00;5.67;;;;;;;;3558273;39;114013;-73
2021/04/15 04:55:58;;;;;;;;;5.33;5.33;;;;;;;;3559303;39;112351;-72
2021/04/15 04:58:24;;;;;;;;;7.00;5.67;;;;;;;;3558345;39;113636;-73
2021/04/15 05:00:51;;;;;;;;;1.00;0.00;;;;;;;;3558837;39;113864;-72
2021/04/15 05:03:20;;;;;;;;;3.00;3.00;;;;;;;;3558818;39;112729;-74
2021/04/15 05:05:48;;;;;;;;;6.00;5.00;;;;;;;;3558978;39;112536;-73
2021/04/15 05:08:20;;;;;;;;;7.00;7.00;;;;;;;;3558391;39;113749;-73
2021/04/15 05:10:50;;;;;;;;;7.33;5.67;;;;;;;;3561545;39;111862;-74
2021/04/15 05:13:17;;;;;;;;;7.00;7.00;;;;;;;;3558956;39;114498;-75
2021/04/15 05:15:43;;;;;;;;;7.33;6.00;;;;;;;;3558545;39;111845;-78
2021/04/15 05:18:11;;;;;;;;;7.00;7.00;;;;;;;;3558251;39;113320;-77
2021/04/15 05:20:37;;;;;;;;;7.33;7.33;;;;;;;;3558394;39;113906;-75
2021/04/15 05:23:06;;;;;;;;;9.33;9.33;;;;;;;;3558871;39;112105;-77
2021/04/15 05:25:35;;;;;;;;;7.00;7.00;;;;;;;;3558499;39;113506;-78
2021/04/15 05:28:02;;;;;;;;;8.00;8.00;;;;;;;;3556797;39;113861;-77
2021/04/15 05:30:34;;;;;;;;;13.00;11.00;;;;;;;;3557743;39;112237;-75
2021/04/15 05:33:02;;;;;;;;;8.33;7.00;;;;;;;;3560048;39;113252;-74
2021/04/15 05:35:30;;;;;;;;;7.67;7.67;;;;;;;;3557944;39;112076;-74
2021/04/15 05:37:57;;;;;;;;;6.00;6.00;;;;;;;;3559510;39;113275;-74
2021/04/15 05:40:23;;;;;;;;;6.67;6.67;;;;;;;;3557660;39;113941;-74
2021/04/15 05:42:52;;;;;;;;;6.67;6.67;;;;;;;;3560054;39;112909;-76
2021/04/15 05:45:21;;;;;;;;;7.00;6.00;;;;;;;;3559558;39;113702;-73
2021/04/15 05:47:54;;;;;;;;;6.00;6.00;;;;;;;;3557937;39;114014;-75
2021/04/15 05:50:23;;;;;;;;;9.33;6.67;;;;;;;;3559101;39;111811;-77
2021/04/15 05:52:52;;;;;;;;;10.33;7.00;;;;;;;;3558390;39;113215;-77
2021/04/15 05:55:20;;;;;;;;;8.67;8.67;;;;;;;;3560664;39;112388;-82
2021/04/15 05:57:49;;;;;;;;;7.00;7.00;;;;;;;;3558354;39;113347;-75
2021/04/15 06:00:20;;;;;;;;;7.00;6.00;;;;;;;;3558127;39;113909;-75
2021/04/15 06:02:50;;;;;;;;;9.00;9.00;;;;;;;;3558115;39;111813;-74
2021/04/15 06:05:19;;;;;;;;;8.67;8.33;;;;;;;;3554780;39;113402;-71
2021/04/15 06:07:47;;;;;;;;;8.33;7.67;;;;;;;;3557592;39;114982;-73
2021/04/15 06:10:14;;;;;;;;;9.00;7.00;;;;;;;;3557928;39;111889;-74
2021/04/15 06:12:46;;;;;;;;;7.67;7.67;;;;;;;;3558528;39;113999;-72
2021/04/15 06:15:14;;;;;;;;;7.00;7.00;;;;;;;;3559071;39;114032;-72
2021/04/15 06:17:43;;;;;;;;;10.67;9.00;;;;;;;;3558275;39;113560;-82
2021/04/15 06:20:11;;;;;;;;;10.67;9.33;;;;;;;;3557653;39;114110;-79
2021/04/15 06:22:39;;;;;;;;;15.00;11.33;;;;;;;;3559286;39;112795;-75
2021/04/15 06:25:07;;;;;;;;;10.67;10.67;;;;;;;;3559880;39;113217;-81
2021/04/15 06:27:33;;;;;;;;;10.33;10.33;;;;;;;;3559578;39;114071;-71
2021/04/15 06:30:02;;;;;;;;;9.33;9.33;;;;;;;;3557881;39;111941;-72
2021/04/15 06:32:32;;;;;;;;;10.33;8.33;;;;;;;;3558124;39;114081;-71
2021/04/15 06:34:59;;;;;;;;;9.00;9.00;;;;;;;;3559812;39;113927;-73
2021/04/15 06:37:33;;;;;;;;;10.67;10.33;;;;;;;;3564200;39;112143;-73
2021/04/15 06:40:02;;;;;;;;;14.00;11.00;;;;;;;;3558747;39;114746;-74
2021/04/15 06:42:43;;;;;;;;;9.00;6.33;;;;;;;;3558806;39;112099;-72
2021/04/15 06:45:14;;;;;;;;;12.00;11.00;;;;;;;;3558527;39;113360;-72
2021/04/15 06:47:55;;;;;;;;;14.00;11.33;;;;;;;;3558759;39;114043;-76
2021/04/15 06:50:26;;;;;;;;;13.00;12.00;;;;;;;;3551368;39;113455;-75
2021/04/15 06:53:07;;;;;;;;;9.33;9.33;;;;;;;;3558022;39;113325;-75
2021/04/15 06:55:43;;;;;;;;;8.67;7.33;;;;;;;;3557163;39;114228;-73
2021/04/15 06:58:16;;;;;;;;;12.67;10.67;;;;;;;;3559535;39;112017;-73
2021/04/15 07:01:01;;;;;;;;;11.00;10.00;;;;;;;;3559888;39;113219;-73
2021/04/15 07:03:42;;;;;;;;;12.00;10.33;;;;;;;;3559795;39;112285;-73
2021/04/15 07:06:12;;;;;;;;;13.00;11.33;;;;;;;;3558638;39;113358;-72
2021/04/15 07:08:52;;;;;;;;;10.00;8.67;;;;;;;;3558752;39;113903;-73
2021/04/15 07:11:28;;;;;;;;;12.00;12.00;;;;;;;;3559199;39;112004;-74
2021/04/15 07:14:08;;;;;;;;;10.00;10.00;;;;;;;;3559778;39;113397;-77
2021/04/15 07:16:51;;;;;;;;;11.00;11.00;;;;;;;;3559465;39;114074;-77
2021/04/15 07:19:31;;;;;;;;;12.00;8.67;;;;;;;;3559650;39;111802;-72
2021/04/15 07:22:21;;;;;;;;;9.33;8.00;;;;;;;;3559666;39;113181;-74
2021/04/15 07:24:55;;;;;;;;;4.67;4.67;;;;;;;;3561978;39;113904;-72
2021/04/15 07:27:40;;;;;;;;;17.00;13.00;;;;;;;;3559306;39;113134;-73
2021/04/15 07:30:27;;;;;;;;;14.00;12.67;;;;;;;;3552282;39;112922;-74
2021/04/15 07:33:20;;;;;;;;;9.67;9.67;;;;;;;;3557011;39;112237;-74
2021/04/15 07:36:06;;;;;;;;;16.25;13.50;;;;;;;;3541055;39;113575;-74
2021/04/15 07:38:42;;;;;;;;;16.25;13.00;;;;;;;;3549092;39;114034;-73
2021/04/15 07:41:17;;;;;;;;;16.75;14.75;;;;;;;;3557334;39;112108;-74
2021/04/15 07:43:50;;;;;;;;;14.25;13.50;;;;;;;;3556804;39;113270;-75
2021/04/15 07:46:22;;;;;;;;;12.00;10.25;;;;;;;;3559250;39;115243;-74
2021/04/15 07:49:02;;;;;;;;;7.00;7.00;;;;;;;;3561236;39;111943;-71
2021/04/15 07:51:41;;;;;;;;;10.25;7.50;;;;;;;;3556861;39;114307;-72
2021/04/15 07:54:37;;;;;;;;;10.75;10.25;;;;;;;;3555845;39;113149;-72
2021/04/15 07:57:31;;;;;;;;;6.25;6.25;;;;;;;;3557933;39;113292;-72
2021/04/15 08:00:15;;;;;;;;;7.00;7.00;;;;;;;;3557435;39;116164;-71
2021/04/15 08:02:52;;;;;;;;;5.25;5.25;;;;;;;;3559435;39;112140;-71
2021/04/15 08:05:36;;;;;;;;;6.00;4.25;;;;;;;;3558958;39;113634;-70
2021/04/15 08:08:32;;;;;;;;;4.00;4.00;;;;;;;;3556278;39;113769;-70
2021/04/15 08:11:19;;;;;;;;;3.25;3.00;;;;;;;;3560036;39;112152;-71
2021/04/15 08:14:04;;;;;;;;;4.25;4.25;;;;;;;;3557721;39;113813;-70
2021/04/15 08:16:36;;;;;;;;;4.75;4.00;;;;;;;;3557804;39;111847;-71
2021/04/15 08:19:11;;;;;;;;;8.00;6.50;;;;;;;;3557468;39;113411;-71
2021/04/15 08:21:41;;;;;;;;;7.50;6.50;;;;;;;;3557704;39;114755;-70
2021/04/15 08:24:15;;;;;;;;;4.00;4.00;;;;;;;;3558302;39;113148;-67
2021/04/15 08:27:02;;;;;;;;;5.00;4.50;;;;;;;;3557947;39;113256;-69
2021/04/15 08:29:39;;;;;;;;;6.75;6.00;;;;;;;;3557864;39;113808;-69
2021/04/15 08:32:13;;;;;;;;;4.50;4.50;;;;;;;;3558471;39;111873;-68
2021/04/15 08:34:47;;;;;;;;;4.00;3.50;;;;;;;;3561647;39;113193;-72
2021/04/15 08:37:23;;;;;;;;;5.25;4.00;;;;;;;;3558902;39;111868;-67
2021/04/15 08:39:56;;;;;;;;;5.50;5.50;;;;;;;;3558246;39;113358;-67
2021/04/15 08:42:40;;;;;;;;;4.00;4.00;;;;;;;;3556118;39;113854;-67
2021/04/15 08:45:30;;;;;;;;;4.00;4.00;;;;;;;;3556943;39;112072;-67
2021/04/15 08:48:07;;;;;;;;;7.50;7.00;;;;;;;;3551749;39;112397;-66
2021/04/15 08:50:43;;;;;;;;;7.75;6.00;;;;;;;;3555901;39;113948;-67
2021/04/15 08:53:18;;;;;;;;;5.50;4.75;;;;;;;;3557505;39;112613;-67
2021/04/15 08:55:45;;;;;;;;;6.50;6.50;;;;;;;;3557116;39;113869;-67
2021/04/15 08:58:26;;;;;;;;;8.50;7.00;;;;;;;;3558125;39;113641;-66
2021/04/15 09:00:56;;;;;;;;;7.00;5.00;;;;;;;;3557471;39;113235;-67
2021/04/15 09:03:27;;;;;;;;;6.25;4.75;;;;;;;;3558840;39;113750;-67
2021/04/15 09:06:01;;;;;;;;;10.00;7.00;;;;;;;;3557655;39;111920;-66
2021/04/15 09:08:32;;;;;;;;;6.50;6.50;;;;;;;;3557836;39;113281;-67
2021/04/15 09:11:04;;;;;;;;;6.00;5.00;;;;;;;;3557614;39;112464;-66
2021/04/15 09:13:35;;;;;;;;;7.50;6.00;;;;;;;;3559506;39;113023;-67
2021/04/15 09:16:23;;;;;;;;;7.00;5.00;;;;;;;;3559396;39;113302;-66
2021/04/15 09:18:54;;;;;;;;;5.00;5.00;;;;;;;;3555003;39;114018;-66
2021/04/15 09:21:27;;;;;;;;;3.50;3.50;;;;;;;;3560783;39;112246;-67
2021/04/15 09:24:04;;;;;;;;;5.50;5.50;;;;;;;;3558598;39;113923;-67
2021/04/15 09:26:37;;;;;;;;;5.00;5.00;;;;;;;;3557707;39;112093;-66
2021/04/15 09:29:14;;;;;;;;;7.50;4.75;;;;;;;;3557504;39;113335;-67
2021/04/15 09:31:50;;;;;;;;;8.00;7.50;;;;;;;;3558099;39;113837;-67
2021/04/15 09:34:31;;;;;;;;;4.75;4.75;;;;;;;;3558468;39;111897;-67
2021/04/15 09:37:08;;;;;;;;;7.50;7.50;;;;;;;;3557605;39;113148;-67
2021/04/15 09:39:45;;;;;;;;;7.00;7.00;;;;;;;;3557201;39;113963;-67
2021/04/15 09:42:27;;;;;;;;;5.75;5.00;;;;;;;;3558467;39;113162;-66
2021/04/15 09:45:09;;;;;;;;;8.50;7.00;;;;;;;;3559133;39;113273;-67
2021/04/15 09:47:40;;;;;;;;;15.75;12.00;;;;;;;;3557646;39;111782;-68
2021/04/15 09:50:12;;;;;;;;;8.50;7.00;;;;;;;;3558705;39;113191;-65
2021/04/15 09:52:47;;;;;;;;;3.00;3.00;;;;;;;;3557588;39;113647;-66
2021/04/15 09:55:22;;;;;;;;;8.25;7.25;;;;;;;;3556581;39;112492;-67
2021/04/15 09:57:52;;;;;;;;;4.75;4.75;;;;;;;;3559040;39;113631;-68
2021/04/15 10:00:21;;;;;;;;;7.00;7.00;;;;;;;;3559847;39;112998;-67
2021/04/15 10:02:55;;;;;;;;;29.67;28.00;;;;;;;;3560667;39;112222;-66
2021/04/15 10:05:35;;;;;;;;;4.75;4.75;;;;;;;;3559362;39;112714;-66
2021/04/15 10:08:08;;;;;;;;;5.00;5.00;;;;;;;;3560860;39;114026;-66
2021/04/15 10:10:40;;;;;;;;;17.50;17.50;;;;;;;;3558900;39;113625;-67
2021/04/15 10:13:16;;;;;;;;;7.25;5.50;;;;;;;;3557741;39;113603;-67
2021/04/15 10:15:43;;;;;;;;;3.50;3.50;;;;;;;;3559357;39;112319;-67
2021/04/15 10:18:24;;;;;;;;;11.25;9.00;;;;;;;;3559212;39;113244;-66
2021/04/15 10:21:05;;;;;;;;;7.00;7.00;;;;;;;;3559986;39;113637;-66
2021/04/15 10:23:49;;;;;;;;;9.00;8.00;;;;;;;;3558828;39;111752;-66
2021/04/15 10:26:20;;;;;;;;;10.00;10.00;;;;;;;;3559739;39;113206;-67
2021/04/15 10:29:07;;;;;;;;;11.25;11.25;;;;;;;;3561497;39;114399;-68
2021/04/15 10:31:44;;;;;;;;;9.00;9.00;;;;;;;;3558197;39;113085;-67
2021/04/15 10:34:28;;;;;;;;;9.50;9.00;;;;;;;;3558711;39;114701;-67
2021/04/15 10:36:55;;;;;;;;;8.25;8.25;;;;;;;;3558506;39;111945;-67
2021/04/15 10:39:40;;;;;;;;;7.75;7.00;;;;;;;;3560155;39;113300;-67
2021/04/15 10:42:34;;;;;;;;;6.50;6.50;;;;;;;;3558566;39;113907;-67
2021/04/15 10:45:17;;;;;;;;;7.75;7.75;;;;;;;;3561412;39;112480;-67
2021/04/15 10:47:50;;;;;;;;;9.75;9.25;;;;;;;;3557393;39;112534;-68
2021/04/15 10:50:25;;;;;;;;;9.50;8.00;;;;;;;;3558670;39;114263;-66
2021/04/15 10:52:58;;;;;;;;;9.50;8.50;;;;;;;;3561142;39;113566;-66
2021/04/15 10:55:26;;;;;;;;;9.50;9.50;;;;;;;;3557311;39;114512;-67
2021/04/15 10:57:54;;;;;;;;;9.00;9.00;;;;;;;;3558534;39;112833;-66
2021/04/15 11:00:24;;;;;;;;;10.00;8.00;;;;;;;;3557787;39;113374;-66
2021/04/15 11:02:50;;;;;;;;;8.00;7.00;;;;;;;;3557853;39;113963;-67
2021/04/15 11:05:18;;;;;;;;;11.00;8.00;;;;;;;;3557745;39;111985;-67
2021/04/15 11:07:45;;;;;;;;;35.50;32.00;;;;;;;;3557654;39;113939;-69
2021/04/15 14:58:01;;;;;;;;;8.25;8.25;;;;;;;;3571000;39;112138;-67
2021/04/15 15:00:28;;;;;;;;;9.50;9.00;;;;;;;;3567567;39;113894;-69
2021/04/15 15:03:00;;;;;;;;;8.00;5.50;;;;;;;;3567158;39;111924;-68
2021/04/15 15:05:28;;;;;;;;;7.75;7.75;;;;;;;;3565880;39;113174;-67
2021/04/15 15:07:55;;;;;;;;;7.50;7.00;;;;;;;;3566645;39;113949;-68
2021/04/15 15:10:22;;;;;;;;;5.00;5.00;;;;;;;;3564528;39;112350;-69
2021/04/15 15:12:48;;;;;;;;;8.00;5.50;;;;;;;;3566244;39;112656;-68
2021/04/15 15:15:18;;;;;;;;;6.50;6.50;;;;;;;;3565893;39;114580;-68
2021/04/15 15:17:44;;;;;;;;;6.25;4.75;;;;;;;;3569058;39;111899;-68
2021/04/15 15:20:15;;;;;;;;;6.00;4.25;;;;;;;;3566369;39;113909;-68
2021/04/15 15:22:42;;;;;;;;;5.00;4.00;;;;;;;;3565007;39;114967;-69
2021/04/15 15:25:09;;;;;;;;;4.75;3.75;;;;;;;;3565510;39;113328;-67
2021/04/15 15:27:36;;;;;;;;;5.00;5.00;;;;;;;;3565164;39;114019;-69
2021/04/15 15:30:08;;;;;;;;;5.00;5.00;;;;;;;;3563485;39;111917;-69
2021/04/15 15:32:36;;;;;;;;;4.50;4.50;;;;;;;;3564999;39;112919;-71
2021/04/15 15:35:07;;;;;;;;;6.50;5.25;;;;;;;;3563051;39;114158;-67
2021/04/15 15:37:34;;;;;;;;;7.75;6.00;;;;;;;;3565721;39;111857;-67
2021/04/15 15:40:15;;;;;;;;;5.00;5.00;;;;;;;;3566667;39;113268;-68
2021/04/15 15:42:59;;;;;;;;;4.50;4.00;;;;;;;;3564015;39;113909;-66
2021/04/15 15:45:35;;;;;;;;;5.00;5.00;;;;;;;;3564518;39;113280;-66
2021/04/15 15:48:02;;;;;;;;;3.25;3.25;;;;;;;;3562416;39;114258;-67
2021/04/15 15:50:31;;;;;;;;;5.25;5.00;;;;;;;;3565104;39;111963;-69
2021/04/15 15:53:15;;;;;;;;;5.00;4.00;;;;;;;;3564108;39;112946;-69
2021/04/15 15:55:41;;;;;;;;;5.25;5.00;;;;;;;;3564077;39;112875;-68
2021/04/15 15:58:08;;;;;;;;;4.25;4.25;;;;;;;;3566293;39;112427;-69
2021/04/15 16:00:35;;;;;;;;;5.75;5.00;;;;;;;;3565300;39;113134;-72
2021/04/15 16:03:25;;;;;;;;;8.50;7.25;;;;;;;;3568914;39;115077;-74
2021/04/15 16:05:53;;;;;;;;;5.25;5.25;;;;;;;;3554167;39;115351;-70
2021/04/15 16:08:25;;;;;;;;;6.75;5.00;;;;;;;;3561602;39;113245;-74
2021/04/15 16:10:52;;;;;;;;;3.00;3.00;;;;;;;;3559605;39;112735;-70
2021/04/15 16:13:36;;;;;;;;;6.00;4.00;;;;;;;;3558729;39;113788;-72
2021/04/15 16:16:12;;;;;;;;;4.00;4.00;;;;;;;;3557682;39;114581;-74
2021/04/15 16:18:39;;;;;;;;;5.00;5.00;;;;;;;;3558113;39;112101;-73
2021/04/15 16:21:08;;;;;;;;;5.50;4.00;;;;;;;;3559805;39;113346;-71
2021/04/15 16:23:35;;;;;;;;;4.25;4.25;;;;;;;;3557589;39;113898;-71
2021/04/15 16:26:02;;;;;;;;;6.00;4.50;;;;;;;;3562512;39;112099;-70
2021/04/15 16:28:28;;;;;;;;;3.00;3.00;;;;;;;;3556103;39;114291;-68
2021/04/15 16:30:54;;;;;;;;;3.00;3.00;;;;;;;;3557920;39;112346;-70
2021/04/15 16:33:21;;;;;;;;;4.00;4.00;;;;;;;;3556859;39;113928;-68
2021/04/15 16:35:47;;;;;;;;;3.25;3.00;;;;;;;;3558181;39;114472;-70
2021/04/15 16:38:18;;;;;;;;;3.00;3.00;;;;;;;;3558805;39;111814;-69
2021/04/15 16:40:44;;;;;;;;;2.00;2.00;;;;;;;;3558426;39;113460;-70
2021/04/15 16:43:10;;;;;;;;;4.00;4.00;;;;;;;;3558430;39;113897;-70
2021/04/15 16:45:36;;;;;;;;;4.00;4.00;;;;;;;;3560940;39;112885;-71
2021/04/15 16:48:03;;;;;;;;;3.75;3.75;;;;;;;;3560437;39;113212;-73
2021/04/15 16:50:31;;;;;;;;;6.50;4.00;;;;;;;;3559736;39;112294;-69
2021/04/15 16:52:57;;;;;;;;;3.50;3.50;;;;;;;;3555613;39;113223;-70
2021/04/15 16:55:24;;;;;;;;;3.75;3.50;;;;;;;;3558709;39;113815;-70
2021/04/15 16:57:50;;;;;;;;;2.00;2.00;;;;;;;;3557995;39;112615;-68
2021/04/15 17:00:18;;;;;;;;;4.50;3.75;;;;;;;;3558928;39;113230;-68
2021/04/15 17:02:44;;;;;;;;;3.00;3.00;;;;;;;;3557810;39;114386;-66
2021/04/15 17:05:11;;;;;;;;;4.75;3.00;;;;;;;;3558384;39;112859;-67
2021/04/15 17:07:37;;;;;;;;;3.00;3.00;;;;;;;;3558697;39;113323;-68
2021/04/15 17:10:04;;;;;;;;;4.00;3.00;;;;;;;;3560324;39;111836;-68
2021/04/15 17:12:31;;;;;;;;;3.50;3.50;;;;;;;;3559968;39;113155;-68
2021/04/15 17:14:57;;;;;;;;;3.00;3.00;;;;;;;;3557034;39;113831;-68
2021/04/15 17:17:23;;;;;;;;;3.50;3.50;;;;;;;;3559026;39;112623;-69
2021/04/15 17:19:49;;;;;;;;;4.25;3.25;;;;;;;;3557383;39;113344;-69
2021/04/15 17:22:15;;;;;;;;;4.50;4.00;;;;;;;;3556949;39;114441;-69
2021/04/15 17:24:41;;;;;;;;;2.75;2.75;;;;;;;;3558176;39;113263;-69
2021/04/15 17:27:08;;;;;;;;;24.50;23.50;;;;;;;;3558820;39;113381;-74
2021/04/15 17:29:56;;;;;;;;;29.20;27.20;;;;;;;;3570882;39;112134;-69
2021/04/15 17:32:22;;;;;;;;;21.25;19.00;;;;;;;;3561429;39;112814;-69
2021/04/15 17:34:48;;;;;;;;;17.75;14.50;;;;;;;;3566053;39;111688;-68
2021/04/15 17:37:14;;;;;;;;;14.25;14.25;;;;;;;;3565908;39;113223;-67
2021/04/15 17:39:40;;;;;;;;;14.00;11.50;;;;;;;;3559685;39;112882;-67
2021/04/15 17:42:07;;;;;;;;;4.00;4.00;;;;;;;;3564356;39;112977;-67
2021/04/15 17:44:33;;;;;;;;;6.50;4.50;;;;;;;;3565173;39;113240;-66
2021/04/15 17:47:00;;;;;;;;;4.00;4.00;;;;;;;;3566135;39;114053;-68
2021/04/15 17:49:26;;;;;;;;;6.00;3.25;;;;;;;;3567701;39;112525;-67
2021/04/15 17:51:53;;;;;;;;;3.25;3.25;;;;;;;;3565668;39;113777;-67
2021/04/15 17:54:19;;;;;;;;;9.00;4.75;;;;;;;;3565574;39;112664;-68
2021/04/15 17:56:46;;;;;;;;;4.00;3.75;;;;;;;;3565749;39;113421;-68
2021/04/15 17:59:12;;;;;;;;;4.00;4.00;;;;;;;;3565719;39;114216;-68
2021/04/15 18:01:38;;;;;;;;;7.75;3.00;;;;;;;;3565208;39;111878;-68
2021/04/15 18:04:05;;;;;;;;;4.00;4.00;;;;;;;;3566708;39;113298;-68
2021/04/15 18:06:31;;;;;;;;;3.25;3.25;;;;;;;;3564600;39;114051;-68
2021/04/15 18:08:57;;;;;;;;;3.00;3.00;;;;;;;;3564920;39;111982;-67
2021/04/15 18:11:24;;;;;;;;;3.00;3.00;;;;;;;;3566002;39;112320;-67
2021/04/15 18:13:50;;;;;;;;;4.00;3.00;;;;;;;;3566333;39;112926;-69
2021/04/15 18:16:16;;;;;;;;;4.00;4.00;;;;;;;;3565737;39;113300;-68
2021/04/15 18:18:43;;;;;;;;;5.00;5.00;;;;;;;;3564841;39;113788;-69
2021/04/15 18:21:11;;;;;;;;;4.00;4.00;;;;;;;;3566082;39;111778;-68
2021/04/15 18:23:37;;;;;;;;;3.00;3.00;;;;;;;;3564926;39;113049;-69
2021/04/15 18:26:03;;;;;;;;;4.75;3.25;;;;;;;;3566162;39;114020;-71
2021/04/15 18:28:30;;;;;;;;;6.00;5.00;;;;;;;;3564921;39;112052;-70
2021/04/15 18:30:58;;;;;;;;;3.00;3.00;;;;;;;;3562541;39;113726;-70
2021/04/15 18:33:25;;;;;;;;;4.00;3.75;;;;;;;;3565286;39;112904;-71
2021/04/15 18:35:52;;;;;;;;;3.50;3.50;;;;;;;;3565114;39;113241;-71
2021/04/15 18:38:20;;;;;;;;;6.75;4.75;;;;;;;;3562848;39;114454;-72